createdAt,value
2022-08-19T00:01:32.275Z,9.53
2022-08-19T00:04:08.572Z,9.00
2022-08-19T00:06:38.514Z,9.00
2022-08-19T00:09:09.705Z,9.30
2022-08-19T00:11:38.439Z,8.80
2022-08-19T00:14:08.306Z,8.60
2022-08-19T00:16:36.461Z,8.73
2022-08-19T00:19:05.677Z,8.30
2022-08-19T00:21:33.623Z,8.53
2022-08-19T00:24:02.112Z,9.13
2022-08-19T00:26:31.452Z,8.37
2022-08-19T00:29:00.904Z,9.07
2022-08-19T00:31:30.631Z,8.87
2022-08-19T00:33:58.880Z,8.43
2022-08-19T00:36:27.472Z,8.90
2022-08-19T00:38:55.328Z,8.97
2022-08-19T00:41:26.300Z,8.57
2022-08-19T00:44:05.566Z,8.90
2022-08-19T00:46:34.664Z,8.23
2022-08-19T00:49:07.544Z,8.60
2022-08-19T00:51:35.684Z,9.10
2022-08-19T00:54:04.723Z,8.47
2022-08-19T00:56:33.312Z,8.77
2022-08-19T00:59:03.822Z,8.50
2022-08-19T01:01:31.971Z,8.30
2022-08-19T01:04:00.124Z,8.30
2022-08-19T01:06:28.428Z,8.10
2022-08-19T01:08:58.747Z,8.50
2022-08-19T01:11:28.814Z,8.73
2022-08-19T01:13:56.879Z,9.33
2022-08-19T01:16:29.145Z,8.87
2022-08-19T01:18:57.556Z,8.50
2022-08-19T01:21:33.287Z,8.90
2022-08-19T01:24:03.181Z,8.47
2022-08-19T01:26:31.834Z,9.10
2022-08-19T01:29:02.003Z,8.30
2022-08-19T01:31:32.793Z,9.20
2022-08-19T01:34:02.452Z,8.80
2022-08-19T01:36:34.099Z,8.93
2022-08-19T01:39:08.056Z,8.20
2022-08-19T01:41:37.079Z,8.80
2022-08-19T01:44:18.120Z,8.93
2022-08-19T01:46:50.272Z,7.97
2022-08-19T01:49:21.257Z,8.77
2022-08-19T01:51:49.724Z,8.90
2022-08-19T01:54:27.001Z,9.50
2022-08-19T01:57:01.312Z,9.80
2022-08-19T01:59:30.488Z,8.97
2022-08-19T02:01:58.709Z,8.73
2022-08-19T02:04:27.200Z,8.73
2022-08-19T02:06:55.152Z,8.60
2022-08-19T02:09:24.477Z,8.90
2022-08-19T02:11:52.383Z,10.00
2022-08-19T02:14:20.323Z,8.90
2022-08-19T02:16:48.255Z,8.80
2022-08-19T02:19:16.133Z,9.40
2022-08-19T02:21:44.558Z,8.77
2022-08-19T02:24:14.265Z,8.70
2022-08-19T02:26:49.341Z,8.70
2022-08-19T02:29:22.336Z,10.93
2022-08-19T02:31:51.269Z,8.90
2022-08-19T02:34:22.225Z,9.83
2022-08-19T02:36:51.945Z,8.90
2022-08-19T02:39:20.105Z,9.43
2022-08-19T02:41:50.404Z,8.90
2022-08-19T02:44:29.189Z,10.07
2022-08-19T02:46:59.373Z,8.80
2022-08-19T02:49:27.297Z,8.63
2022-08-19T02:51:55.319Z,8.43
2022-08-19T02:54:23.231Z,8.90
2022-08-19T02:56:52.714Z,9.00
2022-08-19T02:59:22.903Z,12.90
2022-08-19T03:01:51.075Z,15.97
2022-08-19T03:04:20.160Z,11.47
2022-08-19T03:06:49.465Z,8.40
2022-08-19T03:09:19.220Z,9.30
2022-08-19T03:11:47.298Z,11.07
2022-08-19T03:14:20.248Z,9.10
2022-08-19T03:16:51.255Z,9.27
2022-08-19T03:19:22.211Z,9.17
2022-08-19T03:21:51.486Z,9.03
2022-08-19T03:24:20.668Z,9.10
2022-08-19T03:26:50.757Z,9.57
2022-08-19T03:29:30.180Z,9.60
2022-08-19T03:32:01.681Z,9.63
2022-08-19T03:34:32.054Z,9.67
2022-08-19T03:37:04.625Z,9.53
2022-08-19T03:39:32.903Z,10.10
2022-08-19T03:42:31.736Z,8.83
2022-08-19T03:44:51.562Z,9.23
2022-08-19T03:47:22.425Z,8.77
2022-08-19T03:49:50.597Z,9.37
2022-08-19T03:52:18.500Z,9.67
2022-08-19T03:54:46.430Z,9.60
2022-08-19T03:57:14.304Z,9.40
2022-08-19T03:59:42.288Z,8.93
2022-08-19T04:02:13.980Z,9.80
2022-08-19T04:04:45.057Z,10.03
2022-08-19T04:07:16.740Z,9.50
2022-08-19T04:09:45.148Z,9.40
2022-08-19T04:12:13.245Z,9.70
2022-08-19T04:14:41.623Z,9.83
2022-08-19T04:17:13.892Z,10.10
2022-08-19T04:19:44.137Z,10.33
2022-08-19T04:22:12.953Z,9.40
2022-08-19T04:24:40.902Z,10.10
2022-08-19T04:27:09.032Z,9.90
2022-08-19T04:29:39.189Z,9.80
2022-08-19T04:32:09.437Z,10.07
2022-08-19T04:35:02.530Z,9.90
2022-08-19T04:37:34.870Z,10.77
2022-08-19T04:40:24.893Z,10.20
2022-08-19T04:42:53.070Z,9.03
2022-08-19T04:45:22.956Z,9.80
2022-08-19T04:47:58.145Z,10.10
2022-08-19T04:50:29.064Z,10.63
2022-08-19T04:52:57.676Z,9.67
2022-08-19T04:55:27.375Z,10.57
2022-08-19T04:57:55.841Z,9.20
2022-08-19T05:00:23.844Z,10.20
2022-08-19T05:02:51.984Z,10.30
2022-08-19T05:05:20.749Z,10.97
2022-08-19T05:07:50.122Z,10.13
2022-08-19T05:10:18.136Z,9.53
2022-08-19T05:12:47.228Z,10.20
2022-08-19T05:15:15.582Z,9.60
2022-08-19T05:18:04.188Z,9.67
2022-08-19T05:20:49.907Z,9.23
2022-08-19T05:23:22.831Z,9.93
2022-08-19T05:25:52.477Z,8.90
2022-08-19T05:28:20.972Z,8.70
2022-08-19T05:30:51.714Z,9.50
2022-08-19T05:33:20.269Z,10.77
2022-08-19T05:35:49.272Z,9.33
2022-08-19T05:38:19.152Z,9.33
2022-08-19T05:40:47.938Z,9.50
2022-08-19T05:43:17.451Z,9.67
2022-08-19T05:45:45.628Z,10.67
2022-08-19T05:48:14.144Z,9.17
2022-08-19T05:50:43.748Z,10.40
2022-08-19T05:53:11.804Z,9.43
2022-08-19T05:55:41.296Z,8.60
2022-08-19T05:58:09.491Z,10.10
2022-08-19T06:00:38.403Z,12.47
2022-08-19T06:03:12.695Z,9.93
2022-08-19T06:05:50.252Z,9.40
2022-08-19T06:08:34.627Z,9.67
2022-08-19T06:11:18.900Z,8.87
2022-08-19T06:13:48.519Z,10.37
2022-08-19T06:16:20.526Z,10.40
2022-08-19T06:18:48.575Z,9.77
2022-08-19T06:21:16.484Z,10.00
2022-08-19T06:23:44.306Z,9.43
2022-08-19T06:26:14.217Z,10.40
2022-08-19T06:28:47.356Z,9.20
2022-08-19T06:31:17.047Z,9.50
2022-08-19T06:33:45.867Z,9.73
2022-08-19T06:36:21.501Z,9.00
2022-08-19T06:38:53.255Z,9.97
2022-08-19T06:41:21.580Z,8.80
2022-08-19T06:43:50.884Z,9.10
2022-08-19T06:46:22.514Z,12.30
2022-08-19T06:48:54.214Z,10.17
2022-08-19T06:51:23.414Z,10.20
2022-08-19T06:53:55.056Z,8.60
2022-08-19T06:56:31.494Z,10.20
2022-08-19T06:59:01.470Z,18.77
2022-08-19T07:01:29.485Z,13.50
2022-08-19T07:03:57.538Z,13.37
2022-08-19T07:06:43.778Z,10.63
2022-08-19T07:09:15.050Z,9.50
2022-08-19T07:11:47.983Z,9.13
2022-08-19T07:14:20.528Z,9.00
2022-08-19T07:16:51.142Z,8.90
2022-08-19T07:19:20.218Z,8.63
2022-08-19T07:21:48.887Z,8.97
2022-08-19T07:24:17.518Z,8.93
2022-08-19T07:26:45.621Z,9.13
2022-08-19T07:29:14.157Z,8.60
2022-08-19T07:31:43.759Z,8.23
2022-08-19T07:34:15.642Z,8.73
2022-08-19T07:36:45.564Z,8.03
2022-08-19T07:39:16.597Z,8.70
2022-08-19T07:41:45.311Z,8.23
2022-08-19T07:44:13.820Z,9.30
2022-08-19T07:46:48.147Z,7.90
2022-08-19T07:49:20.059Z,9.30
2022-08-19T07:51:49.903Z,9.50
2022-08-19T07:54:18.464Z,9.17
2022-08-19T07:56:46.380Z,10.60
2022-08-19T07:59:14.422Z,9.10
2022-08-19T08:01:43.638Z,7.87
2022-08-19T08:04:29.365Z,8.93
2022-08-19T08:07:14.706Z,8.13
2022-08-19T08:09:44.466Z,7.47
2022-08-19T08:12:33.541Z,8.33
2022-08-19T08:15:08.412Z,9.13
2022-08-19T08:17:49.357Z,7.87
2022-08-19T08:20:21.102Z,11.33
2022-08-19T08:23:07.474Z,14.30
2022-08-19T08:25:38.221Z,10.13
2022-08-19T08:28:09.138Z,10.07
2022-08-19T08:30:42.472Z,10.00
2022-08-19T08:35:47.925Z,9.23
2022-08-19T08:38:16.509Z,8.47
2022-08-19T08:40:49.529Z,9.60
2022-08-19T08:43:25.506Z,7.40
2022-08-19T08:46:01.444Z,8.40
2022-08-19T08:48:40.216Z,10.97
2022-08-19T08:51:13.023Z,9.10
2022-08-19T08:53:43.143Z,9.10
2022-08-19T08:56:13.437Z,9.30
2022-08-19T08:58:58.128Z,10.07
2022-08-19T09:01:29.057Z,8.53
2022-08-19T09:04:03.004Z,7.70
2022-08-19T09:06:40.728Z,8.30
2022-08-19T09:09:18.727Z,8.30
2022-08-19T09:11:58.005Z,8.10
2022-08-19T09:14:51.296Z,7.80
2022-08-19T09:17:29.019Z,11.93
2022-08-19T09:20:05.332Z,9.30
2022-08-19T09:22:34.177Z,8.27
2022-08-19T09:25:02.318Z,8.43
2022-08-19T09:27:42.731Z,8.33
2022-08-19T09:30:16.048Z,8.50
2022-08-19T09:32:44.900Z,7.97
2022-08-19T09:35:16.058Z,6.93
2022-08-19T09:37:45.301Z,7.30
2022-08-19T09:40:14.357Z,7.07
2022-08-19T09:42:49.702Z,7.80
2022-08-19T09:45:21.882Z,7.23
2022-08-19T09:47:52.038Z,8.20
2022-08-19T09:50:24.569Z,7.43
2022-08-19T09:52:57.543Z,7.70
2022-08-19T09:55:31.840Z,8.60
2022-08-19T09:58:02.239Z,6.73
2022-08-19T10:00:31.162Z,7.77
2022-08-19T10:02:59.076Z,8.30
2022-08-19T10:05:48.646Z,8.07
2022-08-19T10:08:18.110Z,7.80
2022-08-19T10:10:47.168Z,7.20
2022-08-19T10:13:17.149Z,7.33
2022-08-19T10:15:47.936Z,7.43
2022-08-19T10:18:17.669Z,6.83
2022-08-19T10:20:51.554Z,6.97
2022-08-19T10:23:21.290Z,7.63
2022-08-19T10:25:50.599Z,7.20
2022-08-19T10:28:19.482Z,8.00
2022-08-19T10:30:48.769Z,7.93
2022-08-19T10:33:38.296Z,7.00
2022-08-19T10:36:10.525Z,7.80
2022-08-19T10:38:39.285Z,7.87
2022-08-19T10:41:19.981Z,7.80
2022-08-19T10:43:48.973Z,7.43
2022-08-19T10:46:18.115Z,6.93
2022-08-19T10:48:47.032Z,7.10
2022-08-19T10:51:33.888Z,7.73
2022-08-19T10:54:02.969Z,6.80
2022-08-19T10:56:53.092Z,6.97
2022-08-19T10:59:22.661Z,6.90
2022-08-19T11:01:56.783Z,6.80
2022-08-19T11:04:28.783Z,9.17
2022-08-19T11:06:58.771Z,7.60
2022-08-19T11:09:33.614Z,7.03
2022-08-19T11:12:03.014Z,7.23
2022-08-19T11:14:34.852Z,7.07
2022-08-19T11:17:10.852Z,6.53
2022-08-19T11:19:43.652Z,6.80
2022-08-19T11:22:16.119Z,7.63
2022-08-19T11:24:47.449Z,6.93
2022-08-19T11:27:15.361Z,6.10
2022-08-19T11:29:43.241Z,7.30
2022-08-19T11:32:13.822Z,6.17
2022-08-19T11:34:41.769Z,6.93
2022-08-19T11:37:10.004Z,6.40
2022-08-19T11:39:40.066Z,6.80
2022-08-19T11:42:29.576Z,7.83
2022-08-19T11:44:57.756Z,6.13
2022-08-19T11:47:26.005Z,6.20
2022-08-19T11:49:54.418Z,6.27
2022-08-19T11:52:22.332Z,6.97
2022-08-19T11:54:51.586Z,7.47
2022-08-19T11:57:20.643Z,5.60
2022-08-19T11:59:52.649Z,6.27
2022-08-19T12:02:21.065Z,6.20
2022-08-19T12:04:49.364Z,7.30
2022-08-19T12:07:17.545Z,6.30
2022-08-19T12:09:45.893Z,6.73
2022-08-19T12:12:17.908Z,7.30
2022-08-19T12:14:47.441Z,7.00
2022-08-19T12:17:15.417Z,6.80
2022-08-19T12:19:43.309Z,6.53
2022-08-19T12:22:11.266Z,6.33
2022-08-19T12:24:39.151Z,6.97
2022-08-19T12:27:12.554Z,6.13
2022-08-19T12:29:42.478Z,6.60
2022-08-19T12:32:12.211Z,6.80
2022-08-19T12:34:40.940Z,7.00
2022-08-19T12:37:09.504Z,6.97
2022-08-19T12:39:40.038Z,7.37
2022-08-19T12:42:09.977Z,7.50
2022-08-19T12:44:38.369Z,6.67
2022-08-19T12:47:11.263Z,7.20
2022-08-19T12:49:54.022Z,7.13
2022-08-19T12:52:23.817Z,7.07
2022-08-19T12:54:53.826Z,6.40
2022-08-19T12:57:24.377Z,6.40
2022-08-19T13:00:01.340Z,6.60
2022-08-19T13:02:33.028Z,6.10
2022-08-19T13:05:09.619Z,6.20
2022-08-19T13:07:39.115Z,5.95
2022-08-19T13:10:08.964Z,6.60
2022-08-19T13:12:38.535Z,7.93
2022-08-19T13:15:10.871Z,6.45
2022-08-19T13:17:42.029Z,7.03
2022-08-19T13:20:12.038Z,6.15
2022-08-19T13:22:40.155Z,6.25
2022-08-19T13:25:09.593Z,6.55
2022-08-19T13:27:38.156Z,6.60
2022-08-19T13:30:36.803Z,9.05
2022-08-19T13:33:12.698Z,7.13
2022-08-19T13:35:42.371Z,6.38
2022-08-19T13:38:11.678Z,7.25
2022-08-19T13:40:42.024Z,6.18
2022-08-19T13:43:22.628Z,7.00
2022-08-19T13:45:57.368Z,5.90
2022-08-19T13:48:28.446Z,6.10
2022-08-19T13:50:56.919Z,6.87
2022-08-19T13:53:25.542Z,7.13
2022-08-19T13:55:54.583Z,7.80
2022-08-19T13:58:23.184Z,7.30
2022-08-19T14:00:51.160Z,6.77
2022-08-19T14:03:19.209Z,6.27
2022-08-19T14:05:48.655Z,8.70
2022-08-19T14:08:17.211Z,8.13
2022-08-19T14:10:45.643Z,7.37
2022-08-19T14:13:16.857Z,8.33
2022-08-19T14:15:45.071Z,7.93
2022-08-19T14:18:13.407Z,8.10
2022-08-19T14:20:41.438Z,8.40
2022-08-19T14:23:10.745Z,6.60
2022-08-19T14:25:38.694Z,7.90
2022-08-19T14:28:07.666Z,7.80
2022-08-19T14:30:38.580Z,6.70
2022-08-19T14:33:08.218Z,6.70
2022-08-19T14:35:36.468Z,6.67
2022-08-19T14:38:05.772Z,10.53
2022-08-19T14:40:35.690Z,7.43
2022-08-19T14:43:06.459Z,6.73
2022-08-19T14:45:36.547Z,7.17
2022-08-19T14:48:05.641Z,7.50
2022-08-19T14:50:33.935Z,7.70
2022-08-19T14:53:09.327Z,7.17
2022-08-19T14:55:45.201Z,7.50
2022-08-19T14:58:29.435Z,8.07
2022-08-19T15:01:00.548Z,6.10
2022-08-19T15:03:29.388Z,6.13
2022-08-19T15:05:58.257Z,6.63
2022-08-19T15:08:26.980Z,7.40
2022-08-19T15:10:57.041Z,6.07
2022-08-19T15:13:25.800Z,6.37
2022-08-19T15:15:53.880Z,6.83
2022-08-19T15:18:22.653Z,6.37
2022-08-19T15:20:51.855Z,6.17
2022-08-19T15:23:21.152Z,5.43
2022-08-19T15:25:52.940Z,5.30
2022-08-19T15:28:22.484Z,4.73
2022-08-19T15:30:50.934Z,6.00
2022-08-19T15:33:20.609Z,6.17
2022-08-19T15:35:50.862Z,5.50
2022-08-19T15:38:20.624Z,5.93
2022-08-19T15:40:50.199Z,5.47
2022-08-19T15:43:21.228Z,5.70
2022-08-19T15:45:50.708Z,5.37
2022-08-19T15:48:18.724Z,5.63
2022-08-19T15:50:46.600Z,6.37
2022-08-19T15:53:14.520Z,6.57
2022-08-19T15:55:45.511Z,6.60
2022-08-19T15:58:33.132Z,6.50
2022-08-19T16:01:23.645Z,6.03
2022-08-19T16:04:13.979Z,5.80
2022-08-19T16:06:46.522Z,5.37
2022-08-19T16:09:15.949Z,6.43
2022-08-19T16:11:45.949Z,5.63
2022-08-19T16:14:14.572Z,5.60
2022-08-19T16:16:47.175Z,5.67
2022-08-19T16:19:17.044Z,5.70
2022-08-19T16:21:46.562Z,4.90
2022-08-19T16:24:16.529Z,5.40
2022-08-19T16:26:45.537Z,5.53
2022-08-19T16:29:14.467Z,6.43
2022-08-19T16:31:46.111Z,7.13
2022-08-19T16:34:15.210Z,6.27
2022-08-19T16:36:43.461Z,5.10
2022-08-19T16:39:12.554Z,5.40
2022-08-19T16:41:41.492Z,6.37
2022-08-19T16:44:11.977Z,6.50
2022-08-19T16:46:41.599Z,5.83
2022-08-19T16:49:12.387Z,6.43
2022-08-19T16:51:40.541Z,6.70
2022-08-19T16:54:09.113Z,6.30
2022-08-19T16:56:37.129Z,5.50
2022-08-19T16:59:06.475Z,5.60
2022-08-19T17:01:34.471Z,7.43
2022-08-19T17:04:02.588Z,8.67
2022-08-19T17:06:36.588Z,7.90
2022-08-19T17:09:07.123Z,6.10
2022-08-19T17:11:35.604Z,6.33
2022-08-19T17:14:04.576Z,6.30
2022-08-19T17:16:34.859Z,6.70
2022-08-19T17:19:04.935Z,5.90
2022-08-19T17:21:36.268Z,6.33
2022-08-19T17:24:08.596Z,6.53
2022-08-19T17:26:37.434Z,6.10
2022-08-19T17:29:07.150Z,6.33
2022-08-19T17:31:35.750Z,7.07
2022-08-19T17:34:03.821Z,6.90
2022-08-19T17:36:34.967Z,6.63
2022-08-19T17:39:05.543Z,6.63
2022-08-19T17:41:35.055Z,5.97
2022-08-19T17:44:03.321Z,9.50
2022-08-19T17:46:31.238Z,8.10
2022-08-19T17:48:59.351Z,9.20
2022-08-19T17:51:42.381Z,11.63
2022-08-19T17:54:13.917Z,8.87
2022-08-19T17:56:41.964Z,9.67
2022-08-19T17:59:11.806Z,7.63
2022-08-19T18:01:52.094Z,7.77
2022-08-19T18:04:21.128Z,7.23
2022-08-19T18:06:53.106Z,6.77
2022-08-19T18:09:24.594Z,6.57
2022-08-19T18:11:54.207Z,6.83
2022-08-19T18:14:32.793Z,6.67
2022-08-19T18:17:05.571Z,6.70
2022-08-19T18:19:41.191Z,5.77
2022-08-19T18:22:12.784Z,6.13
2022-08-19T18:24:41.573Z,6.23
2022-08-19T18:27:09.924Z,5.80
2022-08-19T18:29:38.593Z,6.90
2022-08-19T18:32:09.080Z,6.33
2022-08-19T18:34:37.460Z,6.50
2022-08-19T18:37:05.884Z,6.10
2022-08-19T18:39:52.696Z,6.30
2022-08-19T18:42:38.098Z,6.70
2022-08-19T18:45:25.258Z,4.43
2022-08-19T18:48:23.997Z,6.80
2022-08-19T18:50:58.298Z,6.43
2022-08-19T18:53:27.208Z,5.30
2022-08-19T18:55:57.041Z,6.40
2022-08-19T18:58:26.589Z,5.17
2022-08-19T19:00:57.369Z,5.10
2022-08-19T19:03:26.925Z,5.03
2022-08-19T19:05:55.242Z,5.33
2022-08-19T19:08:27.336Z,5.97
2022-08-19T19:10:58.919Z,5.37
2022-08-19T19:13:29.491Z,7.23
2022-08-19T19:15:57.450Z,5.30
2022-08-19T19:18:25.340Z,7.60
2022-08-19T19:20:53.312Z,6.07
2022-08-19T19:23:22.414Z,5.57
2022-08-19T19:25:52.217Z,6.33
2022-08-19T19:28:25.314Z,5.63
2022-08-19T19:30:54.311Z,6.27
2022-08-19T19:33:22.428Z,5.43
2022-08-19T19:35:50.332Z,6.30
2022-08-19T19:38:18.445Z,5.90
2022-08-19T19:40:46.507Z,5.80
2022-08-19T19:43:17.361Z,5.40
2022-08-19T19:45:48.205Z,6.20
2022-08-19T19:48:16.607Z,6.50
2022-08-19T19:50:44.760Z,6.30
2022-08-19T19:53:15.044Z,5.90
2022-08-19T19:55:43.195Z,5.70
2022-08-19T19:58:11.205Z,5.77
2022-08-19T20:00:39.150Z,6.33
2022-08-19T20:03:09.092Z,5.87
2022-08-19T20:05:36.989Z,5.80
2022-08-19T20:08:22.715Z,7.10
2022-08-19T20:10:50.756Z,6.13
2022-08-19T20:13:18.844Z,5.90
2022-08-19T20:15:46.733Z,8.23
2022-08-19T20:18:16.073Z,8.07
2022-08-19T20:20:45.060Z,6.10
2022-08-19T20:23:13.285Z,6.90
2022-08-19T20:25:41.167Z,5.57
2022-08-19T20:28:09.302Z,5.50
2022-08-19T20:30:40.453Z,6.23
2022-08-19T20:33:16.007Z,5.47
2022-08-19T20:35:44.932Z,6.13
2022-08-19T20:38:13.580Z,5.93
2022-08-19T20:40:41.535Z,7.07
2022-08-19T20:43:11.839Z,7.73
2022-08-19T20:45:40.074Z,5.73
2022-08-19T20:48:10.447Z,6.00
2022-08-19T20:50:40.628Z,5.83
2022-08-19T20:53:14.247Z,6.57
2022-08-19T20:55:45.381Z,6.00
2022-08-19T20:58:14.004Z,6.17
2022-08-19T21:00:43.808Z,6.70
2022-08-19T21:03:11.922Z,7.27
2022-08-19T21:05:41.208Z,6.10
2022-08-19T21:08:09.192Z,6.80
2022-08-19T21:10:40.534Z,6.33
2022-08-19T21:13:10.227Z,6.57
2022-08-19T21:15:40.565Z,6.60
2022-08-19T21:18:08.861Z,5.70
2022-08-19T21:20:37.138Z,5.77
2022-08-19T21:23:07.378Z,6.00
2022-08-19T21:25:35.818Z,5.77
2022-08-19T21:28:04.272Z,5.80
2022-08-19T21:30:32.222Z,6.57
2022-08-19T21:33:00.909Z,5.43
2022-08-19T21:35:29.464Z,5.60
2022-08-19T21:37:57.810Z,5.17
2022-08-19T21:40:28.019Z,5.87
2022-08-19T21:42:56.099Z,5.83
2022-08-19T21:45:24.326Z,6.63
2022-08-19T21:47:52.160Z,5.83
2022-08-19T21:50:20.540Z,5.70
2022-08-19T21:52:48.460Z,5.80
2022-08-19T21:55:17.177Z,6.80
2022-08-19T21:57:46.979Z,6.30
2022-08-19T22:00:18.518Z,5.97
2022-08-19T22:02:46.865Z,5.40
2022-08-19T22:05:15.139Z,6.00
2022-08-19T22:07:43.662Z,6.20
2022-08-19T22:10:11.910Z,5.70
2022-08-19T22:12:47.267Z,6.20
2022-08-19T22:15:22.215Z,5.47
2022-08-19T22:17:51.112Z,10.27
2022-08-19T22:20:21.926Z,7.57
2022-08-19T22:22:52.849Z,5.53
2022-08-19T22:25:31.272Z,5.53
2022-08-19T22:28:01.776Z,5.27
2022-08-19T22:30:34.038Z,6.43
2022-08-19T22:33:04.747Z,6.13
2022-08-19T22:35:35.821Z,5.60
2022-08-19T22:38:06.374Z,5.97
2022-08-19T22:40:36.836Z,5.63
2022-08-19T22:43:07.888Z,6.07
2022-08-19T22:45:38.021Z,6.33
2022-08-19T22:48:07.770Z,6.40
2022-08-19T22:50:36.096Z,6.90
2022-08-19T22:53:03.977Z,6.20
2022-08-19T22:55:32.205Z,6.20
2022-08-19T22:58:00.189Z,5.90
2022-08-19T23:00:29.648Z,6.80
2022-08-19T23:02:59.386Z,5.63
2022-08-19T23:05:29.593Z,5.50
2022-08-19T23:07:58.526Z,5.87
2022-08-19T23:10:28.964Z,6.00
2022-08-19T23:12:59.122Z,5.80
2022-08-19T23:15:31.086Z,6.67
2022-08-19T23:18:02.838Z,7.13
2022-08-19T23:20:34.438Z,6.30
2022-08-19T23:23:04.792Z,6.10
2022-08-19T23:25:35.216Z,6.20
2022-08-19T23:28:21.404Z,6.47
2022-08-19T23:30:51.077Z,6.20
2022-08-19T23:33:24.658Z,6.60
2022-08-19T23:35:55.673Z,6.13
2022-08-19T23:38:24.868Z,7.30
2022-08-19T23:40:54.765Z,6.87
2022-08-19T23:43:24.537Z,7.20
2022-08-19T23:45:53.788Z,11.37
2022-08-19T23:48:28.400Z,10.83
2022-08-19T23:50:57.444Z,9.10
2022-08-19T23:53:25.485Z,7.67
2022-08-19T23:55:53.660Z,8.27
2022-08-19T23:58:22.514Z,9.50
